Terminal Aerodrome Forecast
Issued by NWS

Home | Current Version | Previous Version | Text Only | Print | Product List | Glossary On
Versions: 1 2 3 4 5 6 7 8 9 10 11 12 13 14 15 16 17 18 19
478
FTUS46 KMTR 222339
TAFOAK
TAF
KOAK 222339Z 2300/2406 28015KT P6SM FEW015 FEW180
     FM230300 30010KT P6SM FEW015 FEW180
     FM230700 32006KT P6SM BKN011
     FM231100 30005KT P6SM OVC010
     FM231700 30006KT P6SM FEW012
     FM232100 30012KT P6SM SKC
     FM240300 29010KT P6SM SKC=

USA.gov is the U.S. government's official web portal to all federal, state and local government web resources and services.